sensor_id;sensor_type;location;lat;lon;timestamp;temperature;humidity
20233;DHT22;37438;55.674;13.074;2023-04-24T00:01:26;6.30;99.90
20233;DHT22;37438;55.674;13.074;2023-04-24T00:04:31;6.30;99.90
20233;DHT22;37438;55.674;13.074;2023-04-24T00:07:36;6.20;99.90
20233;DHT22;37438;55.674;13.074;2023-04-24T00:10:41;6.20;99.90
20233;DHT22;37438;55.674;13.074;2023-04-24T00:13:45;6.20;99.90
20233;DHT22;37438;55.674;13.074;2023-04-24T00:16:50;6.20;99.90
20233;DHT22;37438;55.674;13.074;2023-04-24T00:19:54;6.10;99.90
20233;DHT22;37438;55.674;13.074;2023-04-24T00:23:06;6.20;99.90
20233;DHT22;37438;55.674;13.074;2023-04-24T00:26:10;6.10;99.90
20233;DHT22;37438;55.674;13.074;2023-04-24T00:29:15;6.10;99.90
20233;DHT22;37438;55.674;13.074;2023-04-24T00:32:19;6.20;99.90
20233;DHT22;37438;55.674;13.074;2023-04-24T00:35:25;6.30;99.90
20233;DHT22;37438;55.674;13.074;2023-04-24T00:38:29;6.40;99.90
20233;DHT22;37438;55.674;13.074;2023-04-24T00:41:34;6.50;99.90
20233;DHT22;37438;55.674;13.074;2023-04-24T00:44:39;6.50;99.90
20233;DHT22;37438;55.674;13.074;2023-04-24T00:47:43;6.70;99.90
20233;DHT22;37438;55.674;13.074;2023-04-24T00:50:49;6.50;99.90
20233;DHT22;37438;55.674;13.074;2023-04-24T00:53:54;6.50;99.90
20233;DHT22;37438;55.674;13.074;2023-04-24T00:56:58;6.40;99.90
20233;DHT22;37438;55.674;13.074;2023-04-24T01:00:05;6.40;99.90
20233;DHT22;37438;55.674;13.074;2023-04-24T01:03:10;6.40;99.90
20233;DHT22;37438;55.674;13.074;2023-04-24T01:06:15;6.40;99.90
20233;DHT22;37438;55.674;13.074;2023-04-24T01:09:22;6.30;99.90
20233;DHT22;37438;55.674;13.074;2023-04-24T01:20:09;6.20;99.90
20233;DHT22;37438;55.674;13.074;2023-04-24T01:23:15;6.30;99.90
20233;DHT22;37438;55.674;13.074;2023-04-24T01:26:21;6.20;99.90
20233;DHT22;37438;55.674;13.074;2023-04-24T01:29:25;6.10;99.90
20233;DHT22;37438;55.674;13.074;2023-04-24T01:32:29;6.10;99.90
20233;DHT22;37438;55.674;13.074;2023-04-24T01:35:34;6.10;99.90
20233;DHT22;37438;55.674;13.074;2023-04-24T01:38:40;6.10;99.90
20233;DHT22;37438;55.674;13.074;2023-04-24T01:41:44;6.10;99.90
20233;DHT22;37438;55.674;13.074;2023-04-24T01:44:49;6.10;99.90
20233;DHT22;37438;55.674;13.074;2023-04-24T01:47:54;6.20;99.90
20233;DHT22;37438;55.674;13.074;2023-04-24T01:51:00;6.20;99.90
20233;DHT22;37438;55.674;13.074;2023-04-24T01:54:06;6.30;99.90
20233;DHT22;37438;55.674;13.074;2023-04-24T01:57:12;6.40;99.90
20233;DHT22;37438;55.674;13.074;2023-04-24T02:00:18;6.50;99.90
20233;DHT22;37438;55.674;13.074;2023-04-24T02:03:22;6.50;99.90
20233;DHT22;37438;55.674;13.074;2023-04-24T02:06:28;6.50;99.90
20233;DHT22;37438;55.674;13.074;2023-04-24T02:09:32;6.50;99.90
20233;DHT22;37438;55.674;13.074;2023-04-24T02:12:36;6.40;99.90
20233;DHT22;37438;55.674;13.074;2023-04-24T02:15:41;6.40;99.90
20233;DHT22;37438;55.674;13.074;2023-04-24T02:18:45;6.40;99.90
20233;DHT22;37438;55.674;13.074;2023-04-24T02:21:50;6.40;99.90
20233;DHT22;37438;55.674;13.074;2023-04-24T02:24:55;6.30;99.90
20233;DHT22;37438;55.674;13.074;2023-04-24T02:27:59;6.40;99.90
20233;DHT22;37438;55.674;13.074;2023-04-24T02:31:04;6.30;99.90
20233;DHT22;37438;55.674;13.074;2023-04-24T02:34:09;6.30;99.90
20233;DHT22;37438;55.674;13.074;2023-04-24T02:37:13;6.30;99.90
20233;DHT22;37438;55.674;13.074;2023-04-24T02:40:19;6.40;99.90
20233;DHT22;37438;55.674;13.074;2023-04-24T02:43:24;6.40;99.90
20233;DHT22;37438;55.674;13.074;2023-04-24T02:46:28;6.30;99.90
20233;DHT22;37438;55.674;13.074;2023-04-24T02:49:33;6.40;99.90
20233;DHT22;37438;55.674;13.074;2023-04-24T02:52:37;6.40;99.90
20233;DHT22;37438;55.674;13.074;2023-04-24T02:55:42;6.40;99.90
20233;DHT22;37438;55.674;13.074;2023-04-24T02:58:46;6.50;99.90
20233;DHT22;37438;55.674;13.074;2023-04-24T03:01:51;6.40;99.90
20233;DHT22;37438;55.674;13.074;2023-04-24T03:04:55;6.50;99.90
20233;DHT22;37438;55.674;13.074;2023-04-24T03:08:01;6.50;99.90
20233;DHT22;37438;55.674;13.074;2023-04-24T03:11:05;6.50;99.90
20233;DHT22;37438;55.674;13.074;2023-04-24T03:14:10;6.60;99.90
20233;DHT22;37438;55.674;13.074;2023-04-24T03:17:14;6.60;99.90
20233;DHT22;37438;55.674;13.074;2023-04-24T03:20:20;6.80;99.90
20233;DHT22;37438;55.674;13.074;2023-04-24T03:23:24;6.90;99.90
20233;DHT22;37438;55.674;13.074;2023-04-24T03:26:28;7.00;99.90
20233;DHT22;37438;55.674;13.074;2023-04-24T03:29:50;7.20;99.90
20233;DHT22;37438;55.674;13.074;2023-04-24T03:33:04;7.30;99.90
20233;DHT22;37438;55.674;13.074;2023-04-24T03:36:12;7.50;99.90
20233;DHT22;37438;55.674;13.074;2023-04-24T03:39:17;7.70;99.90
20233;DHT22;37438;55.674;13.074;2023-04-24T03:42:28;7.90;99.90
20233;DHT22;37438;55.674;13.074;2023-04-24T03:45:33;8.00;99.90
20233;DHT22;37438;55.674;13.074;2023-04-24T03:48:38;8.10;99.90
20233;DHT22;37438;55.674;13.074;2023-04-24T03:51:44;8.20;99.90
20233;DHT22;37438;55.674;13.074;2023-04-24T03:54:58;8.40;99.90
20233;DHT22;37438;55.674;13.074;2023-04-24T03:58:04;8.50;99.90
20233;DHT22;37438;55.674;13.074;2023-04-24T04:01:09;8.50;99.90
20233;DHT22;37438;55.674;13.074;2023-04-24T04:04:28;8.50;99.90
20233;DHT22;37438;55.674;13.074;2023-04-24T04:07:33;8.50;99.90
20233;DHT22;37438;55.674;13.074;2023-04-24T04:10:38;8.50;99.90
20233;DHT22;37438;55.674;13.074;2023-04-24T04:13:42;8.40;99.90
20233;DHT22;37438;55.674;13.074;2023-04-24T04:16:47;8.40;99.90
20233;DHT22;37438;55.674;13.074;2023-04-24T04:19:52;8.30;99.90
20233;DHT22;37438;55.674;13.074;2023-04-24T04:22:57;8.20;99.90
20233;DHT22;37438;55.674;13.074;2023-04-24T04:26:12;8.20;99.90
20233;DHT22;37438;55.674;13.074;2023-04-24T04:29:33;8.20;99.90
20233;DHT22;37438;55.674;13.074;2023-04-24T04:32:40;8.20;99.90
20233;DHT22;37438;55.674;13.074;2023-04-24T04:35:45;8.30;99.90
20233;DHT22;37438;55.674;13.074;2023-04-24T04:38:53;8.40;99.90
20233;DHT22;37438;55.674;13.074;2023-04-24T04:42:16;8.40;99.90
20233;DHT22;37438;55.674;13.074;2023-04-24T04:45:23;8.50;99.90
20233;DHT22;37438;55.674;13.074;2023-04-24T04:48:47;8.70;99.90
20233;DHT22;37438;55.674;13.074;2023-04-24T04:51:51;8.80;99.90
20233;DHT22;37438;55.674;13.074;2023-04-24T04:54:57;9.00;99.90
20233;DHT22;37438;55.674;13.074;2023-04-24T04:58:10;9.10;99.90
20233;DHT22;37438;55.674;13.074;2023-04-24T05:01:15;9.30;99.90
20233;DHT22;37438;55.674;13.074;2023-04-24T05:04:22;9.50;99.90
20233;DHT22;37438;55.674;13.074;2023-04-24T05:07:27;9.60;99.90
20233;DHT22;37438;55.674;13.074;2023-04-24T05:10:32;9.70;99.90
20233;DHT22;37438;55.674;13.074;2023-04-24T05:13:38;9.80;99.90
20233;DHT22;37438;55.674;13.074;2023-04-24T05:17:10;9.90;99.90
20233;DHT22;37438;55.674;13.074;2023-04-24T05:20:15;10.00;99.90
20233;DHT22;37438;55.674;13.074;2023-04-24T05:23:21;10.00;99.90
20233;DHT22;37438;55.674;13.074;2023-04-24T05:26:29;10.10;99.90
20233;DHT22;37438;55.674;13.074;2023-04-24T05:29:35;10.20;99.90
20233;DHT22;37438;55.674;13.074;2023-04-24T05:32:41;10.40;99.90
20233;DHT22;37438;55.674;13.074;2023-04-24T05:35:45;10.60;99.90
20233;DHT22;37438;55.674;13.074;2023-04-24T05:38:51;10.70;99.90
20233;DHT22;37438;55.674;13.074;2023-04-24T05:41:56;10.80;99.90
20233;DHT22;37438;55.674;13.074;2023-04-24T05:45:02;10.90;99.90
20233;DHT22;37438;55.674;13.074;2023-04-24T05:48:07;11.10;99.90
20233;DHT22;37438;55.674;13.074;2023-04-24T05:51:12;11.20;99.90
20233;DHT22;37438;55.674;13.074;2023-04-24T05:54:16;11.20;99.90
20233;DHT22;37438;55.674;13.074;2023-04-24T05:57:21;11.30;99.90
20233;DHT22;37438;55.674;13.074;2023-04-24T06:00:36;11.30;99.90
20233;DHT22;37438;55.674;13.074;2023-04-24T06:03:44;11.30;99.90
20233;DHT22;37438;55.674;13.074;2023-04-24T06:06:49;11.20;99.90
20233;DHT22;37438;55.674;13.074;2023-04-24T06:09:55;11.20;99.90
20233;DHT22;37438;55.674;13.074;2023-04-24T06:13:01;11.20;99.90
20233;DHT22;37438;55.674;13.074;2023-04-24T06:16:07;11.20;99.90
20233;DHT22;37438;55.674;13.074;2023-04-24T06:19:15;11.20;99.90
20233;DHT22;37438;55.674;13.074;2023-04-24T06:22:20;11.20;99.90
20233;DHT22;37438;55.674;13.074;2023-04-24T06:25:25;11.20;99.90
20233;DHT22;37438;55.674;13.074;2023-04-24T06:28:30;11.00;99.90
20233;DHT22;37438;55.674;13.074;2023-04-24T06:31:35;10.90;99.90
20233;DHT22;37438;55.674;13.074;2023-04-24T06:34:41;10.90;99.90
20233;DHT22;37438;55.674;13.074;2023-04-24T06:37:46;10.90;99.90
20233;DHT22;37438;55.674;13.074;2023-04-24T06:40:51;10.70;99.90
20233;DHT22;37438;55.674;13.074;2023-04-24T06:43:55;10.80;99.90
20233;DHT22;37438;55.674;13.074;2023-04-24T06:47:00;10.90;99.90
20233;DHT22;37438;55.674;13.074;2023-04-24T06:50:04;10.90;99.90
20233;DHT22;37438;55.674;13.074;2023-04-24T06:53:09;10.90;99.90
20233;DHT22;37438;55.674;13.074;2023-04-24T06:56:15;10.90;99.90
20233;DHT22;37438;55.674;13.074;2023-04-24T06:59:20;10.90;99.90
20233;DHT22;37438;55.674;13.074;2023-04-24T07:02:24;10.90;99.90
20233;DHT22;37438;55.674;13.074;2023-04-24T07:05:29;11.00;99.90
20233;DHT22;37438;55.674;13.074;2023-04-24T07:08:34;11.00;99.90
20233;DHT22;37438;55.674;13.074;2023-04-24T07:11:38;11.00;99.90
20233;DHT22;37438;55.674;13.074;2023-04-24T07:14:45;11.10;99.90
20233;DHT22;37438;55.674;13.074;2023-04-24T07:17:49;11.20;99.90
20233;DHT22;37438;55.674;13.074;2023-04-24T07:20:54;11.20;99.90
20233;DHT22;37438;55.674;13.074;2023-04-24T07:23:59;11.20;99.90
20233;DHT22;37438;55.674;13.074;2023-04-24T07:27:04;11.30;99.90
20233;DHT22;37438;55.674;13.074;2023-04-24T07:30:09;11.20;99.90
20233;DHT22;37438;55.674;13.074;2023-04-24T07:33:14;11.20;99.90
20233;DHT22;37438;55.674;13.074;2023-04-24T07:36:19;11.00;99.90
20233;DHT22;37438;55.674;13.074;2023-04-24T07:39:23;11.00;99.90
20233;DHT22;37438;55.674;13.074;2023-04-24T07:42:28;10.90;99.90
20233;DHT22;37438;55.674;13.074;2023-04-24T07:45:34;10.80;99.90
20233;DHT22;37438;55.674;13.074;2023-04-24T07:48:41;10.70;99.90
20233;DHT22;37438;55.674;13.074;2023-04-24T07:51:46;10.50;99.90
20233;DHT22;37438;55.674;13.074;2023-04-24T07:54:50;10.50;99.90
20233;DHT22;37438;55.674;13.074;2023-04-24T07:57:57;10.50;99.90
20233;DHT22;37438;55.674;13.074;2023-04-24T08:01:01;10.40;99.90
20233;DHT22;37438;55.674;13.074;2023-04-24T08:04:05;10.30;99.90
20233;DHT22;37438;55.674;13.074;2023-04-24T08:07:10;10.20;99.90
20233;DHT22;37438;55.674;13.074;2023-04-24T08:10:17;10.00;99.90
20233;DHT22;37438;55.674;13.074;2023-04-24T08:13:22;10.00;99.90
20233;DHT22;37438;55.674;13.074;2023-04-24T08:16:26;9.90;99.90
20233;DHT22;37438;55.674;13.074;2023-04-24T08:19:31;10.00;99.90
20233;DHT22;37438;55.674;13.074;2023-04-24T08:22:36;10.00;99.90
20233;DHT22;37438;55.674;13.074;2023-04-24T08:25:40;10.00;99.90
20233;DHT22;37438;55.674;13.074;2023-04-24T08:28:45;10.10;99.90
20233;DHT22;37438;55.674;13.074;2023-04-24T08:31:49;10.10;99.90
20233;DHT22;37438;55.674;13.074;2023-04-24T08:34:55;10.10;99.90
20233;DHT22;37438;55.674;13.074;2023-04-24T08:38:00;10.10;99.90
20233;DHT22;37438;55.674;13.074;2023-04-24T08:41:05;10.30;99.90
20233;DHT22;37438;55.674;13.074;2023-04-24T08:44:12;10.30;99.90
20233;DHT22;37438;55.674;13.074;2023-04-24T08:47:20;10.40;99.90
20233;DHT22;37438;55.674;13.074;2023-04-24T08:50:26;10.30;99.90
20233;DHT22;37438;55.674;13.074;2023-04-24T08:53:32;10.60;99.90
20233;DHT22;37438;55.674;13.074;2023-04-24T08:56:37;10.80;99.90
20233;DHT22;37438;55.674;13.074;2023-04-24T08:59:44;10.80;99.90
20233;DHT22;37438;55.674;13.074;2023-04-24T09:02:52;10.70;99.90
20233;DHT22;37438;55.674;13.074;2023-04-24T09:05:57;10.70;99.90
20233;DHT22;37438;55.674;13.074;2023-04-24T09:09:02;11.00;99.90
20233;DHT22;37438;55.674;13.074;2023-04-24T09:12:07;11.00;99.90
20233;DHT22;37438;55.674;13.074;2023-04-24T09:15:14;11.10;99.90
20233;DHT22;37438;55.674;13.074;2023-04-24T09:18:19;11.20;99.90
20233;DHT22;37438;55.674;13.074;2023-04-24T09:21:24;11.00;99.90
20233;DHT22;37438;55.674;13.074;2023-04-24T09:24:35;10.90;99.90
20233;DHT22;37438;55.674;13.074;2023-04-24T09:27:44;11.00;99.90
20233;DHT22;37438;55.674;13.074;2023-04-24T09:31:22;11.60;99.90
20233;DHT22;37438;55.674;13.074;2023-04-24T09:34:27;11.50;99.90
20233;DHT22;37438;55.674;13.074;2023-04-24T09:37:34;11.50;99.90
20233;DHT22;37438;55.674;13.074;2023-04-24T09:40:39;11.50;99.90
20233;DHT22;37438;55.674;13.074;2023-04-24T09:43:45;11.40;99.90
20233;DHT22;37438;55.674;13.074;2023-04-24T09:46:51;11.20;99.90
20233;DHT22;37438;55.674;13.074;2023-04-24T09:49:58;10.90;99.90
20233;DHT22;37438;55.674;13.074;2023-04-24T09:53:04;10.90;99.90
20233;DHT22;37438;55.674;13.074;2023-04-24T09:56:10;10.70;99.90
20233;DHT22;37438;55.674;13.074;2023-04-24T09:59:18;10.60;99.90
20233;DHT22;37438;55.674;13.074;2023-04-24T10:02:23;10.60;99.90
20233;DHT22;37438;55.674;13.074;2023-04-24T10:05:32;10.60;99.90
20233;DHT22;37438;55.674;13.074;2023-04-24T10:08:37;10.50;99.90
20233;DHT22;37438;55.674;13.074;2023-04-24T10:11:45;10.60;99.90
20233;DHT22;37438;55.674;13.074;2023-04-24T10:14:50;10.70;99.90
20233;DHT22;37438;55.674;13.074;2023-04-24T10:17:57;10.90;99.90
20233;DHT22;37438;55.674;13.074;2023-04-24T10:21:02;11.00;99.90
20233;DHT22;37438;55.674;13.074;2023-04-24T10:24:07;11.20;99.90
20233;DHT22;37438;55.674;13.074;2023-04-24T10:27:12;11.10;99.90
20233;DHT22;37438;55.674;13.074;2023-04-24T10:30:19;11.30;99.90
20233;DHT22;37438;55.674;13.074;2023-04-24T10:33:24;11.40;99.90
20233;DHT22;37438;55.674;13.074;2023-04-24T10:36:30;11.50;99.90
20233;DHT22;37438;55.674;13.074;2023-04-24T10:39:37;11.70;99.90
20233;DHT22;37438;55.674;13.074;2023-04-24T10:42:41;11.70;99.90
20233;DHT22;37438;55.674;13.074;2023-04-24T10:46:04;11.60;99.90
20233;DHT22;37438;55.674;13.074;2023-04-24T10:49:09;11.90;99.90
20233;DHT22;37438;55.674;13.074;2023-04-24T10:52:14;12.10;99.90
20233;DHT22;37438;55.674;13.074;2023-04-24T10:58:53;13.20;13.40
20233;DHT22;37438;55.674;13.074;2023-04-24T11:01:58;13.20;99.90
20233;DHT22;37438;55.674;13.074;2023-04-24T11:05:06;12.90;36.60
20233;DHT22;37438;55.674;13.074;2023-04-24T11:08:15;13.60;1.00
20233;DHT22;37438;55.674;13.074;2023-04-24T11:11:20;13.70;99.90
20233;DHT22;37438;55.674;13.074;2023-04-24T11:14:25;14.50;99.90
20233;DHT22;37438;55.674;13.074;2023-04-24T11:17:36;15.90;99.90
20233;DHT22;37438;55.674;13.074;2023-04-24T11:20:46;15.90;4.70
20233;DHT22;37438;55.674;13.074;2023-04-24T11:23:50;16.00;1.00
20233;DHT22;37438;55.674;13.074;2023-04-24T11:30:09;16.20;1.00
20233;DHT22;37438;55.674;13.074;2023-04-24T11:33:19;16.80;99.90
20233;DHT22;37438;55.674;13.074;2023-04-24T11:36:25;16.60;1.00
20233;DHT22;37438;55.674;13.074;2023-04-24T11:39:36;16.20;99.90
20233;DHT22;37438;55.674;13.074;2023-04-24T11:42:45;15.90;1.00
20233;DHT22;37438;55.674;13.074;2023-04-24T11:45:51;15.20;19.90
20233;DHT22;37438;55.674;13.074;2023-04-24T11:48:56;16.10;1.00
20233;DHT22;37438;55.674;13.074;2023-04-24T11:52:00;17.10;49.50
20233;DHT22;37438;55.674;13.074;2023-04-24T11:58:21;16.60;1.00
20233;DHT22;37438;55.674;13.074;2023-04-24T12:01:26;16.80;1.00
20233;DHT22;37438;55.674;13.074;2023-04-24T12:04:39;17.00;99.90
20233;DHT22;37438;55.674;13.074;2023-04-24T12:07:44;15.80;99.90
20233;DHT22;37438;55.674;13.074;2023-04-24T12:10:51;16.40;99.90
20233;DHT22;37438;55.674;13.074;2023-04-24T12:13:56;17.10;99.90
20233;DHT22;37438;55.674;13.074;2023-04-24T12:17:03;17.30;99.90
20233;DHT22;37438;55.674;13.074;2023-04-24T12:20:08;17.80;99.90
20233;DHT22;37438;55.674;13.074;2023-04-24T12:23:13;18.10;19.40
20233;DHT22;37438;55.674;13.074;2023-04-24T12:26:18;18.30;7.30
20233;DHT22;37438;55.674;13.074;2023-04-24T12:29:24;19.10;1.00
20233;DHT22;37438;55.674;13.074;2023-04-24T12:32:29;18.50;99.90
20233;DHT22;37438;55.674;13.074;2023-04-24T12:35:33;18.00;99.90
20233;DHT22;37438;55.674;13.074;2023-04-24T12:38:43;18.40;99.90
20233;DHT22;37438;55.674;13.074;2023-04-24T12:41:56;17.00;1.00
20233;DHT22;37438;55.674;13.074;2023-04-24T12:45:06;16.20;48.90
20233;DHT22;37438;55.674;13.074;2023-04-24T12:48:11;15.90;99.90
20233;DHT22;37438;55.674;13.074;2023-04-24T12:51:18;16.70;99.90
20233;DHT22;37438;55.674;13.074;2023-04-24T12:54:22;17.50;1.00
20233;DHT22;37438;55.674;13.074;2023-04-24T12:57:29;18.40;99.90
20233;DHT22;37438;55.674;13.074;2023-04-24T13:00:34;18.30;76.20
20233;DHT22;37438;55.674;13.074;2023-04-24T13:10:06;18.80;99.90
20233;DHT22;37438;55.674;13.074;2023-04-24T13:13:11;17.80;99.90
20233;DHT22;37438;55.674;13.074;2023-04-24T13:16:16;17.40;99.90
20233;DHT22;37438;55.674;13.074;2023-04-24T13:19:20;18.60;99.90
20233;DHT22;37438;55.674;13.074;2023-04-24T13:22:25;18.50;99.90
20233;DHT22;37438;55.674;13.074;2023-04-24T13:25:35;18.20;99.90
20233;DHT22;37438;55.674;13.074;2023-04-24T13:28:40;19.50;99.90
20233;DHT22;37438;55.674;13.074;2023-04-24T13:31:44;19.30;99.90
20233;DHT22;37438;55.674;13.074;2023-04-24T13:34:49;18.20;99.90
20233;DHT22;37438;55.674;13.074;2023-04-24T13:37:54;17.90;99.90
20233;DHT22;37438;55.674;13.074;2023-04-24T13:40:58;17.70;99.90
20233;DHT22;37438;55.674;13.074;2023-04-24T13:44:04;16.80;99.90
20233;DHT22;37438;55.674;13.074;2023-04-24T13:47:08;18.40;99.90
20233;DHT22;37438;55.674;13.074;2023-04-24T13:50:13;17.80;99.90
20233;DHT22;37438;55.674;13.074;2023-04-24T13:53:17;17.30;99.90
20233;DHT22;37438;55.674;13.074;2023-04-24T13:56:22;16.50;99.90
20233;DHT22;37438;55.674;13.074;2023-04-24T13:59:27;17.10;99.90
20233;DHT22;37438;55.674;13.074;2023-04-24T14:05:41;17.80;99.90
20233;DHT22;37438;55.674;13.074;2023-04-24T14:08:51;17.80;99.90
20233;DHT22;37438;55.674;13.074;2023-04-24T14:11:56;18.60;99.90
20233;DHT22;37438;55.674;13.074;2023-04-24T14:15:01;18.90;99.90
20233;DHT22;37438;55.674;13.074;2023-04-24T14:18:06;18.10;99.90
20233;DHT22;37438;55.674;13.074;2023-04-24T14:21:10;18.30;99.90
20233;DHT22;37438;55.674;13.074;2023-04-24T14:24:14;19.40;99.90
20233;DHT22;37438;55.674;13.074;2023-04-24T14:27:19;18.10;99.90
20233;DHT22;37438;55.674;13.074;2023-04-24T14:30:23;17.90;99.90
20233;DHT22;37438;55.674;13.074;2023-04-24T14:33:28;18.10;99.90
20233;DHT22;37438;55.674;13.074;2023-04-24T14:36:32;18.90;99.90
20233;DHT22;37438;55.674;13.074;2023-04-24T14:39:36;18.40;99.90
20233;DHT22;37438;55.674;13.074;2023-04-24T14:42:41;19.50;99.90
20233;DHT22;37438;55.674;13.074;2023-04-24T14:45:45;19.50;99.90
20233;DHT22;37438;55.674;13.074;2023-04-24T14:48:50;18.70;99.90
20233;DHT22;37438;55.674;13.074;2023-04-24T14:51:54;18.40;99.90
20233;DHT22;37438;55.674;13.074;2023-04-24T14:54:58;18.50;99.90
20233;DHT22;37438;55.674;13.074;2023-04-24T14:58:03;18.00;99.90
20233;DHT22;37438;55.674;13.074;2023-04-24T15:01:07;17.70;99.90
20233;DHT22;37438;55.674;13.074;2023-04-24T15:04:12;17.40;99.90
20233;DHT22;37438;55.674;13.074;2023-04-24T15:07:16;16.80;99.90
20233;DHT22;37438;55.674;13.074;2023-04-24T15:10:21;16.50;99.90
20233;DHT22;37438;55.674;13.074;2023-04-24T15:13:27;16.70;99.90
20233;DHT22;37438;55.674;13.074;2023-04-24T15:16:31;16.70;99.90
20233;DHT22;37438;55.674;13.074;2023-04-24T15:19:36;16.30;99.90
20233;DHT22;37438;55.674;13.074;2023-04-24T15:22:40;16.30;99.90
20233;DHT22;37438;55.674;13.074;2023-04-24T15:25:45;16.60;99.90
20233;DHT22;37438;55.674;13.074;2023-04-24T15:28:49;17.10;99.90
20233;DHT22;37438;55.674;13.074;2023-04-24T15:31:54;17.20;99.90
20233;DHT22;37438;55.674;13.074;2023-04-24T15:34:58;17.50;99.90
20233;DHT22;37438;55.674;13.074;2023-04-24T15:38:13;17.50;99.90
20233;DHT22;37438;55.674;13.074;2023-04-24T15:41:17;17.90;99.90
20233;DHT22;37438;55.674;13.074;2023-04-24T15:44:22;16.80;99.90
20233;DHT22;37438;55.674;13.074;2023-04-24T15:47:27;16.60;99.90
20233;DHT22;37438;55.674;13.074;2023-04-24T15:50:32;16.40;99.90
20233;DHT22;37438;55.674;13.074;2023-04-24T15:53:36;16.00;99.90
20233;DHT22;37438;55.674;13.074;2023-04-24T15:56:41;16.30;99.90
20233;DHT22;37438;55.674;13.074;2023-04-24T15:59:45;16.40;99.90
20233;DHT22;37438;55.674;13.074;2023-04-24T16:02:50;16.40;99.90
20233;DHT22;37438;55.674;13.074;2023-04-24T16:05:55;16.30;99.90
20233;DHT22;37438;55.674;13.074;2023-04-24T16:08:59;16.30;99.90
20233;DHT22;37438;55.674;13.074;2023-04-24T16:12:07;16.10;99.90
20233;DHT22;37438;55.674;13.074;2023-04-24T16:15:13;15.60;99.90
20233;DHT22;37438;55.674;13.074;2023-04-24T16:18:18;15.40;99.90
20233;DHT22;37438;55.674;13.074;2023-04-24T16:21:22;15.20;99.90
20233;DHT22;37438;55.674;13.074;2023-04-24T16:24:27;15.20;99.90
20233;DHT22;37438;55.674;13.074;2023-04-24T16:27:32;15.10;99.90
20233;DHT22;37438;55.674;13.074;2023-04-24T16:30:36;15.00;99.90
20233;DHT22;37438;55.674;13.074;2023-04-24T16:33:43;14.90;99.90
20233;DHT22;37438;55.674;13.074;2023-04-24T16:36:47;14.80;99.90
20233;DHT22;37438;55.674;13.074;2023-04-24T16:39:52;14.80;99.90
20233;DHT22;37438;55.674;13.074;2023-04-24T16:42:58;14.70;99.90
20233;DHT22;37438;55.674;13.074;2023-04-24T16:46:03;14.60;99.90
20233;DHT22;37438;55.674;13.074;2023-04-24T16:49:07;14.50;99.90
20233;DHT22;37438;55.674;13.074;2023-04-24T16:52:12;14.50;99.90
20233;DHT22;37438;55.674;13.074;2023-04-24T16:55:16;14.40;99.90
20233;DHT22;37438;55.674;13.074;2023-04-24T16:58:21;14.20;99.90
20233;DHT22;37438;55.674;13.074;2023-04-24T17:01:26;14.20;1.00
20233;DHT22;37438;55.674;13.074;2023-04-24T17:04:30;14.00;1.00
20233;DHT22;37438;55.674;13.074;2023-04-24T17:07:39;13.70;99.90
20233;DHT22;37438;55.674;13.074;2023-04-24T17:10:44;13.40;1.00
20233;DHT22;37438;55.674;13.074;2023-04-24T17:13:48;12.90;99.90
20233;DHT22;37438;55.674;13.074;2023-04-24T17:16:53;12.60;99.90
20233;DHT22;37438;55.674;13.074;2023-04-24T17:19:57;12.30;27.30
20233;DHT22;37438;55.674;13.074;2023-04-24T17:23:06;12.00;18.60
20233;DHT22;37438;55.674;13.074;2023-04-24T17:26:15;11.70;99.90
20233;DHT22;37438;55.674;13.074;2023-04-24T17:29:19;11.30;99.90
20233;DHT22;37438;55.674;13.074;2023-04-24T17:32:24;10.90;99.90
20233;DHT22;37438;55.674;13.074;2023-04-24T17:35:28;10.90;99.90
20233;DHT22;37438;55.674;13.074;2023-04-24T17:38:33;10.70;99.90
20233;DHT22;37438;55.674;13.074;2023-04-24T17:41:37;10.70;99.90
20233;DHT22;37438;55.674;13.074;2023-04-24T17:44:42;10.60;99.90
20233;DHT22;37438;55.674;13.074;2023-04-24T17:47:46;10.60;99.90
20233;DHT22;37438;55.674;13.074;2023-04-24T17:50:52;10.60;99.90
20233;DHT22;37438;55.674;13.074;2023-04-24T17:53:56;10.40;99.90
20233;DHT22;37438;55.674;13.074;2023-04-24T17:57:01;10.40;99.90
20233;DHT22;37438;55.674;13.074;2023-04-24T18:00:06;10.40;99.90
20233;DHT22;37438;55.674;13.074;2023-04-24T18:03:11;10.30;99.90
20233;DHT22;37438;55.674;13.074;2023-04-24T18:06:15;10.40;99.90
20233;DHT22;37438;55.674;13.074;2023-04-24T18:09:22;10.40;99.90
20233;DHT22;37438;55.674;13.074;2023-04-24T18:12:26;10.40;99.90
20233;DHT22;37438;55.674;13.074;2023-04-24T18:15:31;10.30;99.90
20233;DHT22;37438;55.674;13.074;2023-04-24T18:18:36;10.30;99.90
20233;DHT22;37438;55.674;13.074;2023-04-24T18:21:41;10.40;99.90
20233;DHT22;37438;55.674;13.074;2023-04-24T18:24:46;10.40;99.90
20233;DHT22;37438;55.674;13.074;2023-04-24T18:27:52;10.30;99.90
20233;DHT22;37438;55.674;13.074;2023-04-24T18:31:00;10.40;99.90
20233;DHT22;37438;55.674;13.074;2023-04-24T18:34:05;10.30;99.90
20233;DHT22;37438;55.674;13.074;2023-04-24T18:37:10;10.30;99.90
20233;DHT22;37438;55.674;13.074;2023-04-24T18:40:14;10.20;99.90
20233;DHT22;37438;55.674;13.074;2023-04-24T18:43:19;10.30;99.90
20233;DHT22;37438;55.674;13.074;2023-04-24T18:46:24;10.30;99.90
20233;DHT22;37438;55.674;13.074;2023-04-24T18:49:29;10.20;99.90
20233;DHT22;37438;55.674;13.074;2023-04-24T18:52:33;10.20;99.90
20233;DHT22;37438;55.674;13.074;2023-04-24T18:55:38;10.20;99.90
20233;DHT22;37438;55.674;13.074;2023-04-24T18:58:42;10.20;99.90
20233;DHT22;37438;55.674;13.074;2023-04-24T19:01:49;10.20;99.90
20233;DHT22;37438;55.674;13.074;2023-04-24T19:04:53;10.10;99.90
20233;DHT22;37438;55.674;13.074;2023-04-24T19:07:58;10.10;99.90
20233;DHT22;37438;55.674;13.074;2023-04-24T19:11:04;10.10;99.90
20233;DHT22;37438;55.674;13.074;2023-04-24T19:14:09;10.00;99.90
20233;DHT22;37438;55.674;13.074;2023-04-24T19:17:14;10.00;99.90
20233;DHT22;37438;55.674;13.074;2023-04-24T19:20:21;10.10;99.90
20233;DHT22;37438;55.674;13.074;2023-04-24T19:23:26;9.90;99.90
20233;DHT22;37438;55.674;13.074;2023-04-24T19:26:30;9.90;99.90
20233;DHT22;37438;55.674;13.074;2023-04-24T19:29:35;9.80;99.90
20233;DHT22;37438;55.674;13.074;2023-04-24T19:32:39;9.90;99.90
20233;DHT22;37438;55.674;13.074;2023-04-24T19:35:44;9.80;99.90
20233;DHT22;37438;55.674;13.074;2023-04-24T19:38:49;9.80;99.90
20233;DHT22;37438;55.674;13.074;2023-04-24T19:41:54;9.80;99.90
20233;DHT22;37438;55.674;13.074;2023-04-24T19:45:00;9.70;99.90
20233;DHT22;37438;55.674;13.074;2023-04-24T19:48:05;9.70;99.90